sensor_id;sensor_type;location;lat;lon;timestamp;temperature;humidity
68139;DHT22;54940;50.842;4.410;2022-07-23T00:01:16;18.40;99.90
68139;DHT22;54940;50.842;4.410;2022-07-23T00:03:41;18.20;99.90
68139;DHT22;54940;50.842;4.410;2022-07-23T00:06:07;18.30;99.90
68139;DHT22;54940;50.842;4.410;2022-07-23T00:08:33;18.20;99.90
68139;DHT22;54940;50.842;4.410;2022-07-23T00:10:58;18.20;99.90
68139;DHT22;54940;50.842;4.410;2022-07-23T00:13:24;18.20;99.90
68139;DHT22;54940;50.842;4.410;2022-07-23T00:15:50;18.10;99.90
68139;DHT22;54940;50.842;4.410;2022-07-23T00:18:15;18.00;99.90
68139;DHT22;54940;50.842;4.410;2022-07-23T00:20:41;18.00;99.90
68139;DHT22;54940;50.842;4.410;2022-07-23T00:23:06;17.90;99.90
68139;DHT22;54940;50.842;4.410;2022-07-23T00:25:32;17.80;99.90
68139;DHT22;54940;50.842;4.410;2022-07-23T00:27:59;17.70;99.90
68139;DHT22;54940;50.842;4.410;2022-07-23T00:30:26;17.80;99.90
68139;DHT22;54940;50.842;4.410;2022-07-23T00:32:56;17.80;99.90
68139;DHT22;54940;50.842;4.410;2022-07-23T00:35:23;17.90;99.90
68139;DHT22;54940;50.842;4.410;2022-07-23T00:37:50;17.90;99.90
68139;DHT22;54940;50.842;4.410;2022-07-23T00:40:16;17.90;99.90
68139;DHT22;54940;50.842;4.410;2022-07-23T00:42:41;17.90;99.90
68139;DHT22;54940;50.842;4.410;2022-07-23T00:45:08;17.80;99.90
68139;DHT22;54940;50.842;4.410;2022-07-23T00:47:34;17.80;99.90
68139;DHT22;54940;50.842;4.410;2022-07-23T00:50:00;17.80;99.90
68139;DHT22;54940;50.842;4.410;2022-07-23T00:52:26;17.80;99.90
68139;DHT22;54940;50.842;4.410;2022-07-23T00:54:52;17.90;99.90
68139;DHT22;54940;50.842;4.410;2022-07-23T00:57:18;17.80;99.90
68139;DHT22;54940;50.842;4.410;2022-07-23T00:59:44;17.90;99.90
68139;DHT22;54940;50.842;4.410;2022-07-23T01:02:10;17.80;99.90
68139;DHT22;54940;50.842;4.410;2022-07-23T01:04:36;17.70;99.90
68139;DHT22;54940;50.842;4.410;2022-07-23T01:07:01;17.70;99.90
68139;DHT22;54940;50.842;4.410;2022-07-23T01:09:27;17.70;99.90
68139;DHT22;54940;50.842;4.410;2022-07-23T01:11:55;17.60;99.90
68139;DHT22;54940;50.842;4.410;2022-07-23T01:14:21;17.60;99.90
68139;DHT22;54940;50.842;4.410;2022-07-23T01:16:48;17.60;99.90
68139;DHT22;54940;50.842;4.410;2022-07-23T01:19:15;17.70;99.90
68139;DHT22;54940;50.842;4.410;2022-07-23T01:21:44;17.70;99.90
68139;DHT22;54940;50.842;4.410;2022-07-23T01:24:11;17.70;99.90
68139;DHT22;54940;50.842;4.410;2022-07-23T01:26:37;17.70;99.90
68139;DHT22;54940;50.842;4.410;2022-07-23T01:29:04;17.60;99.90
68139;DHT22;54940;50.842;4.410;2022-07-23T01:31:30;17.70;99.90
68139;DHT22;54940;50.842;4.410;2022-07-23T01:33:56;17.70;99.90
68139;DHT22;54940;50.842;4.410;2022-07-23T01:36:22;17.70;99.90
68139;DHT22;54940;50.842;4.410;2022-07-23T01:38:48;17.50;99.90
68139;DHT22;54940;50.842;4.410;2022-07-23T01:41:14;17.40;99.90
68139;DHT22;54940;50.842;4.410;2022-07-23T01:43:40;17.40;99.90
68139;DHT22;54940;50.842;4.410;2022-07-23T01:46:06;17.50;99.90
68139;DHT22;54940;50.842;4.410;2022-07-23T01:48:31;17.60;99.90
68139;DHT22;54940;50.842;4.410;2022-07-23T01:50:57;17.50;99.90
68139;DHT22;54940;50.842;4.410;2022-07-23T01:53:23;17.60;99.90
68139;DHT22;54940;50.842;4.410;2022-07-23T01:55:48;17.60;99.90
68139;DHT22;54940;50.842;4.410;2022-07-23T01:58:14;17.60;99.90
68139;DHT22;54940;50.842;4.410;2022-07-23T02:00:40;17.60;99.90
68139;DHT22;54940;50.842;4.410;2022-07-23T02:03:05;17.60;99.90
68139;DHT22;54940;50.842;4.410;2022-07-23T02:05:31;17.60;99.90
68139;DHT22;54940;50.842;4.410;2022-07-23T02:07:57;17.60;99.90
68139;DHT22;54940;50.842;4.410;2022-07-23T02:10:24;17.60;99.90
68139;DHT22;54940;50.842;4.410;2022-07-23T02:12:49;17.70;99.90
68139;DHT22;54940;50.842;4.410;2022-07-23T02:15:15;17.60;99.90
68139;DHT22;54940;50.842;4.410;2022-07-23T02:17:41;17.60;99.90
68139;DHT22;54940;50.842;4.410;2022-07-23T02:20:08;17.60;99.90
68139;DHT22;54940;50.842;4.410;2022-07-23T02:22:34;17.50;99.90
68139;DHT22;54940;50.842;4.410;2022-07-23T02:25:00;17.60;99.90
68139;DHT22;54940;50.842;4.410;2022-07-23T02:27:25;17.50;99.90
68139;DHT22;54940;50.842;4.410;2022-07-23T02:29:51;17.40;99.90
68139;DHT22;54940;50.842;4.410;2022-07-23T02:32:17;17.40;99.90
68139;DHT22;54940;50.842;4.410;2022-07-23T02:34:42;17.30;99.90
68139;DHT22;54940;50.842;4.410;2022-07-23T02:37:08;17.30;99.90
68139;DHT22;54940;50.842;4.410;2022-07-23T02:39:35;17.20;99.90
68139;DHT22;54940;50.842;4.410;2022-07-23T02:42:01;17.30;99.90
68139;DHT22;54940;50.842;4.410;2022-07-23T02:44:26;17.40;99.90
68139;DHT22;54940;50.842;4.410;2022-07-23T02:46:52;17.50;99.90
68139;DHT22;54940;50.842;4.410;2022-07-23T02:49:17;17.40;99.90
68139;DHT22;54940;50.842;4.410;2022-07-23T02:51:43;17.40;99.90
68139;DHT22;54940;50.842;4.410;2022-07-23T02:54:09;17.40;99.90
68139;DHT22;54940;50.842;4.410;2022-07-23T02:56:34;17.50;99.90
68139;DHT22;54940;50.842;4.410;2022-07-23T02:59:00;17.50;99.90
68139;DHT22;54940;50.842;4.410;2022-07-23T03:01:25;17.50;99.90
68139;DHT22;54940;50.842;4.410;2022-07-23T03:03:51;17.50;99.90
68139;DHT22;54940;50.842;4.410;2022-07-23T03:06:17;17.50;99.90
68139;DHT22;54940;50.842;4.410;2022-07-23T03:08:42;17.50;99.90
68139;DHT22;54940;50.842;4.410;2022-07-23T03:11:08;17.50;99.90
68139;DHT22;54940;50.842;4.410;2022-07-23T03:13:37;17.50;99.90
68139;DHT22;54940;50.842;4.410;2022-07-23T03:16:03;17.50;99.90
68139;DHT22;54940;50.842;4.410;2022-07-23T03:18:29;17.50;99.90
68139;DHT22;54940;50.842;4.410;2022-07-23T03:20:55;17.50;99.90
68139;DHT22;54940;50.842;4.410;2022-07-23T03:23:21;17.40;99.90
68139;DHT22;54940;50.842;4.410;2022-07-23T03:25:46;17.40;99.90
68139;DHT22;54940;50.842;4.410;2022-07-23T03:28:17;17.40;99.90
68139;DHT22;54940;50.842;4.410;2022-07-23T03:30:44;17.40;99.90
68139;DHT22;54940;50.842;4.410;2022-07-23T03:33:14;17.40;99.90
68139;DHT22;54940;50.842;4.410;2022-07-23T03:35:42;17.40;99.90
68139;DHT22;54940;50.842;4.410;2022-07-23T03:38:08;17.40;99.90
68139;DHT22;54940;50.842;4.410;2022-07-23T03:40:33;17.40;99.90
68139;DHT22;54940;50.842;4.410;2022-07-23T03:42:59;17.40;99.90
68139;DHT22;54940;50.842;4.410;2022-07-23T03:45:25;17.40;99.90
68139;DHT22;54940;50.842;4.410;2022-07-23T03:47:51;17.30;99.90
68139;DHT22;54940;50.842;4.410;2022-07-23T03:50:17;17.40;99.90
68139;DHT22;54940;50.842;4.410;2022-07-23T03:52:42;17.30;99.90
68139;DHT22;54940;50.842;4.410;2022-07-23T03:55:08;17.30;99.90
68139;DHT22;54940;50.842;4.410;2022-07-23T03:57:34;17.30;99.90
68139;DHT22;54940;50.842;4.410;2022-07-23T04:00:00;17.40;99.90
68139;DHT22;54940;50.842;4.410;2022-07-23T04:02:25;17.20;99.90
68139;DHT22;54940;50.842;4.410;2022-07-23T04:04:51;17.30;99.90
68139;DHT22;54940;50.842;4.410;2022-07-23T04:07:17;17.30;99.90
68139;DHT22;54940;50.842;4.410;2022-07-23T04:09:43;17.30;99.90
68139;DHT22;54940;50.842;4.410;2022-07-23T04:12:09;17.30;99.90
68139;DHT22;54940;50.842;4.410;2022-07-23T04:14:35;17.30;99.90
68139;DHT22;54940;50.842;4.410;2022-07-23T04:17:01;17.30;99.90
68139;DHT22;54940;50.842;4.410;2022-07-23T04:19:27;17.30;99.90
68139;DHT22;54940;50.842;4.410;2022-07-23T04:21:53;17.30;99.90
68139;DHT22;54940;50.842;4.410;2022-07-23T04:24:18;17.30;99.90
68139;DHT22;54940;50.842;4.410;2022-07-23T04:26:44;17.40;99.90
68139;DHT22;54940;50.842;4.410;2022-07-23T04:29:10;17.40;99.90
68139;DHT22;54940;50.842;4.410;2022-07-23T04:31:36;17.40;99.90
68139;DHT22;54940;50.842;4.410;2022-07-23T04:34:02;17.40;99.90
68139;DHT22;54940;50.842;4.410;2022-07-23T04:36:27;17.40;99.90
68139;DHT22;54940;50.842;4.410;2022-07-23T04:38:53;17.40;99.90
68139;DHT22;54940;50.842;4.410;2022-07-23T04:41:19;17.40;99.90
68139;DHT22;54940;50.842;4.410;2022-07-23T04:43:45;17.40;99.90
68139;DHT22;54940;50.842;4.410;2022-07-23T04:46:10;17.40;99.90
68139;DHT22;54940;50.842;4.410;2022-07-23T04:48:36;17.40;99.90
68139;DHT22;54940;50.842;4.410;2022-07-23T04:51:03;17.40;99.90
68139;DHT22;54940;50.842;4.410;2022-07-23T04:53:28;17.30;99.90
68139;DHT22;54940;50.842;4.410;2022-07-23T04:55:55;17.40;99.90
68139;DHT22;54940;50.842;4.410;2022-07-23T04:58:21;17.50;99.90
68139;DHT22;54940;50.842;4.410;2022-07-23T05:00:46;17.50;99.90
68139;DHT22;54940;50.842;4.410;2022-07-23T05:03:12;17.50;99.90
68139;DHT22;54940;50.842;4.410;2022-07-23T05:05:38;17.60;99.90
68139;DHT22;54940;50.842;4.410;2022-07-23T05:08:03;17.70;99.90
68139;DHT22;54940;50.842;4.410;2022-07-23T05:10:30;17.70;99.90
68139;DHT22;54940;50.842;4.410;2022-07-23T05:12:55;17.70;99.90
68139;DHT22;54940;50.842;4.410;2022-07-23T05:15:21;17.70;99.90
68139;DHT22;54940;50.842;4.410;2022-07-23T05:17:47;17.80;99.90
68139;DHT22;54940;50.842;4.410;2022-07-23T05:20:13;17.80;99.90
68139;DHT22;54940;50.842;4.410;2022-07-23T05:22:39;17.90;99.90
68139;DHT22;54940;50.842;4.410;2022-07-23T05:25:05;18.20;99.90
68139;DHT22;54940;50.842;4.410;2022-07-23T05:27:31;18.30;99.90
68139;DHT22;54940;50.842;4.410;2022-07-23T05:29:57;18.40;99.90
68139;DHT22;54940;50.842;4.410;2022-07-23T05:32:23;18.50;99.90
68139;DHT22;54940;50.842;4.410;2022-07-23T05:34:49;18.80;99.90
68139;DHT22;54940;50.842;4.410;2022-07-23T05:37:15;18.90;99.90
68139;DHT22;54940;50.842;4.410;2022-07-23T05:39:41;19.20;99.90
68139;DHT22;54940;50.842;4.410;2022-07-23T05:42:06;19.40;99.90
68139;DHT22;54940;50.842;4.410;2022-07-23T05:44:33;19.20;99.90
68139;DHT22;54940;50.842;4.410;2022-07-23T05:46:58;19.00;99.90
68139;DHT22;54940;50.842;4.410;2022-07-23T05:49:24;18.90;99.90
68139;DHT22;54940;50.842;4.410;2022-07-23T05:51:50;18.90;99.90
68139;DHT22;54940;50.842;4.410;2022-07-23T05:54:15;18.80;99.90
68139;DHT22;54940;50.842;4.410;2022-07-23T05:56:41;18.70;99.90
68139;DHT22;54940;50.842;4.410;2022-07-23T05:59:06;18.70;99.90
68139;DHT22;54940;50.842;4.410;2022-07-23T06:01:32;18.80;99.90
68139;DHT22;54940;50.842;4.410;2022-07-23T06:03:58;18.90;99.90
68139;DHT22;54940;50.842;4.410;2022-07-23T06:06:23;19.20;99.90
68139;DHT22;54940;50.842;4.410;2022-07-23T06:08:49;19.60;99.90
68139;DHT22;54940;50.842;4.410;2022-07-23T06:11:14;20.00;99.90
68139;DHT22;54940;50.842;4.410;2022-07-23T06:13:40;20.40;99.90
68139;DHT22;54940;50.842;4.410;2022-07-23T06:16:06;20.60;99.90
68139;DHT22;54940;50.842;4.410;2022-07-23T06:18:31;20.80;99.90
68139;DHT22;54940;50.842;4.410;2022-07-23T06:20:57;21.00;99.90
68139;DHT22;54940;50.842;4.410;2022-07-23T06:23:23;21.20;99.90
68139;DHT22;54940;50.842;4.410;2022-07-23T06:25:48;21.40;99.90
68139;DHT22;54940;50.842;4.410;2022-07-23T06:28:14;21.50;99.80
68139;DHT22;54940;50.842;4.410;2022-07-23T06:30:40;21.70;99.50
68139;DHT22;54940;50.842;4.410;2022-07-23T06:33:06;21.80;98.40
68139;DHT22;54940;50.842;4.410;2022-07-23T06:35:32;22.10;99.80
68139;DHT22;54940;50.842;4.410;2022-07-23T06:37:59;22.60;99.40
68139;DHT22;54940;50.842;4.410;2022-07-23T06:40:24;22.80;99.40
68139;DHT22;54940;50.842;4.410;2022-07-23T06:42:51;23.10;98.20
68139;DHT22;54940;50.842;4.410;2022-07-23T06:45:16;23.00;96.60
68139;DHT22;54940;50.842;4.410;2022-07-23T06:47:42;22.80;96.90
68139;DHT22;54940;50.842;4.410;2022-07-23T06:50:09;22.50;97.60
68139;DHT22;54940;50.842;4.410;2022-07-23T06:52:35;22.30;97.20
68139;DHT22;54940;50.842;4.410;2022-07-23T06:55:00;22.00;98.80
68139;DHT22;54940;50.842;4.410;2022-07-23T06:57:26;22.20;99.10
68139;DHT22;54940;50.842;4.410;2022-07-23T06:59:52;22.60;99.10
68139;DHT22;54940;50.842;4.410;2022-07-23T07:02:18;22.70;96.70
68139;DHT22;54940;50.842;4.410;2022-07-23T07:04:43;22.80;97.10
68139;DHT22;54940;50.842;4.410;2022-07-23T07:07:09;23.10;97.80
68139;DHT22;54940;50.842;4.410;2022-07-23T07:09:35;23.40;97.50
68139;DHT22;54940;50.842;4.410;2022-07-23T07:12:01;23.70;97.00
68139;DHT22;54940;50.842;4.410;2022-07-23T07:14:27;24.20;96.90
68139;DHT22;54940;50.842;4.410;2022-07-23T07:16:52;24.70;96.00
68139;DHT22;54940;50.842;4.410;2022-07-23T07:19:18;25.00;96.40
68139;DHT22;54940;50.842;4.410;2022-07-23T07:21:44;25.20;95.90
68139;DHT22;54940;50.842;4.410;2022-07-23T07:24:09;25.20;93.20
68139;DHT22;54940;50.842;4.410;2022-07-23T07:26:35;24.80;91.80
68139;DHT22;54940;50.842;4.410;2022-07-23T07:29:01;24.80;93.90
68139;DHT22;54940;50.842;4.410;2022-07-23T07:31:26;25.10;94.40
68139;DHT22;54940;50.842;4.410;2022-07-23T07:33:52;25.10;94.60
68139;DHT22;54940;50.842;4.410;2022-07-23T07:36:18;25.20;91.80
68139;DHT22;54940;50.842;4.410;2022-07-23T07:38:44;25.40;92.20
68139;DHT22;54940;50.842;4.410;2022-07-23T07:41:09;25.30;93.10
68139;DHT22;54940;50.842;4.410;2022-07-23T07:43:36;25.10;91.60
68139;DHT22;54940;50.842;4.410;2022-07-23T07:46:03;25.10;92.80
68139;DHT22;54940;50.842;4.410;2022-07-23T07:48:28;25.60;94.30
68139;DHT22;54940;50.842;4.410;2022-07-23T07:50:54;26.20;91.90
68139;DHT22;54940;50.842;4.410;2022-07-23T07:53:20;26.50;91.90
68139;DHT22;54940;50.842;4.410;2022-07-23T07:55:46;26.50;88.90
68139;DHT22;54940;50.842;4.410;2022-07-23T07:58:11;26.20;90.30
68139;DHT22;54940;50.842;4.410;2022-07-23T08:00:37;26.60;91.80
68139;DHT22;54940;50.842;4.410;2022-07-23T08:03:03;26.80;90.70
68139;DHT22;54940;50.842;4.410;2022-07-23T08:05:29;27.00;90.00
68139;DHT22;54940;50.842;4.410;2022-07-23T08:07:56;26.90;87.90
68139;DHT22;54940;50.842;4.410;2022-07-23T08:10:23;26.60;88.60
68139;DHT22;54940;50.842;4.410;2022-07-23T08:12:51;26.80;91.30
68139;DHT22;54940;50.842;4.410;2022-07-23T08:15:19;27.30;91.30
68139;DHT22;54940;50.842;4.410;2022-07-23T08:17:46;27.50;87.50
68139;DHT22;54940;50.842;4.410;2022-07-23T08:20:14;27.60;89.60
68139;DHT22;54940;50.842;4.410;2022-07-23T08:25:25;28.00;85.20
68139;DHT22;54940;50.842;4.410;2022-07-23T08:27:52;28.10;83.80
68139;DHT22;54940;50.842;4.410;2022-07-23T08:30:18;27.80;87.10
68139;DHT22;54940;50.842;4.410;2022-07-23T08:33:00;27.90;87.40
68139;DHT22;54940;50.842;4.410;2022-07-23T08:37:57;28.10;81.40
68139;DHT22;54940;50.842;4.410;2022-07-23T08:40:26;27.70;84.40
68139;DHT22;54940;50.842;4.410;2022-07-23T08:42:51;27.50;85.00
68139;DHT22;54940;50.842;4.410;2022-07-23T08:45:21;27.50;88.20
68139;DHT22;54940;50.842;4.410;2022-07-23T08:47:50;27.60;81.80
68139;DHT22;54940;50.842;4.410;2022-07-23T08:50:16;27.40;85.80
68139;DHT22;54940;50.842;4.410;2022-07-23T08:52:41;27.20;81.80
68139;DHT22;54940;50.842;4.410;2022-07-23T08:55:08;27.30;86.70
68139;DHT22;54940;50.842;4.410;2022-07-23T08:57:34;27.70;89.50
68139;DHT22;54940;50.842;4.410;2022-07-23T09:00:00;27.50;83.30
68139;DHT22;54940;50.842;4.410;2022-07-23T09:02:26;27.40;85.50
68139;DHT22;54940;50.842;4.410;2022-07-23T09:04:52;27.50;85.00
68139;DHT22;54940;50.842;4.410;2022-07-23T09:07:18;27.70;85.40
68139;DHT22;54940;50.842;4.410;2022-07-23T09:09:43;28.10;87.80
68139;DHT22;54940;50.842;4.410;2022-07-23T09:12:11;28.60;88.30
68139;DHT22;54940;50.842;4.410;2022-07-23T09:14:44;28.80;82.20
68139;DHT22;54940;50.842;4.410;2022-07-23T09:17:16;29.00;83.60
68139;DHT22;54940;50.842;4.410;2022-07-23T09:19:43;28.80;77.10
68139;DHT22;54940;50.842;4.410;2022-07-23T09:28:05;29.00;84.10
68139;DHT22;54940;50.842;4.410;2022-07-23T09:30:33;28.80;78.10
68139;DHT22;54940;50.842;4.410;2022-07-23T09:33:13;28.40;77.10
68139;DHT22;54940;50.842;4.410;2022-07-23T09:35:54;28.10;79.20
68139;DHT22;54940;50.842;4.410;2022-07-23T09:38:22;28.00;79.70
68139;DHT22;54940;50.842;4.410;2022-07-23T09:41:07;28.20;83.00
68139;DHT22;54940;50.842;4.410;2022-07-23T09:43:33;28.20;81.20
68139;DHT22;54940;50.842;4.410;2022-07-23T09:46:37;28.40;81.30
68139;DHT22;54940;50.842;4.410;2022-07-23T09:49:22;28.10;80.20
68139;DHT22;54940;50.842;4.410;2022-07-23T09:51:53;27.90;77.40
68139;DHT22;54940;50.842;4.410;2022-07-23T09:54:32;28.10;79.80
68139;DHT22;54940;50.842;4.410;2022-07-23T09:57:02;28.10;86.50
68139;DHT22;54940;50.842;4.410;2022-07-23T09:59:33;28.30;79.70
68139;DHT22;54940;50.842;4.410;2022-07-23T10:02:00;28.50;84.30
68139;DHT22;54940;50.842;4.410;2022-07-23T10:04:28;28.70;79.30
68139;DHT22;54940;50.842;4.410;2022-07-23T10:06:57;28.60;77.10
68139;DHT22;54940;50.842;4.410;2022-07-23T10:09:35;28.30;76.50
68139;DHT22;54940;50.842;4.410;2022-07-23T10:12:10;28.50;83.30
68139;DHT22;54940;50.842;4.410;2022-07-23T10:14:56;28.70;76.50
68139;DHT22;54940;50.842;4.410;2022-07-23T10:17:22;28.60;82.30
68139;DHT22;54940;50.842;4.410;2022-07-23T10:19:47;28.60;77.50
68139;DHT22;54940;50.842;4.410;2022-07-23T10:22:15;28.70;75.40
68139;DHT22;54940;50.842;4.410;2022-07-23T10:28:15;28.50;77.50
68139;DHT22;54940;50.842;4.410;2022-07-23T10:36:20;28.00;76.00
68139;DHT22;54940;50.842;4.410;2022-07-23T10:39:15;27.90;78.20
68139;DHT22;54940;50.842;4.410;2022-07-23T10:41:43;28.00;79.60
68139;DHT22;54940;50.842;4.410;2022-07-23T10:44:16;28.20;76.10
68139;DHT22;54940;50.842;4.410;2022-07-23T10:46:57;28.40;83.10
68139;DHT22;54940;50.842;4.410;2022-07-23T10:49:31;28.60;77.80
68139;DHT22;54940;50.842;4.410;2022-07-23T10:52:18;28.80;80.00
68139;DHT22;54940;50.842;4.410;2022-07-23T10:57:27;29.30;81.20
68139;DHT22;54940;50.842;4.410;2022-07-23T11:02:38;29.60;77.30
68139;DHT22;54940;50.842;4.410;2022-07-23T11:05:10;29.50;75.20
68139;DHT22;54940;50.842;4.410;2022-07-23T11:13:38;29.90;75.80
68139;DHT22;54940;50.842;4.410;2022-07-23T11:16:21;30.20;72.90
68139;DHT22;54940;50.842;4.410;2022-07-23T11:34:41;33.20;64.80
68139;DHT22;54940;50.842;4.410;2022-07-23T11:37:13;33.80;65.40
68139;DHT22;54940;50.842;4.410;2022-07-23T11:39:55;34.50;66.50
68139;DHT22;54940;50.842;4.410;2022-07-23T11:42:20;34.50;61.90
68139;DHT22;54940;50.842;4.410;2022-07-23T11:44:46;34.70;64.80
68139;DHT22;54940;50.842;4.410;2022-07-23T11:47:12;35.00;54.50
68139;DHT22;54940;50.842;4.410;2022-07-23T11:49:38;34.50;59.60
68139;DHT22;54940;50.842;4.410;2022-07-23T11:52:14;34.40;56.30
68139;DHT22;54940;50.842;4.410;2022-07-23T11:57:28;33.90;55.80
68139;DHT22;54940;50.842;4.410;2022-07-23T12:00:22;33.90;61.20
68139;DHT22;54940;50.842;4.410;2022-07-23T12:02:52;33.90;59.20
68139;DHT22;54940;50.842;4.410;2022-07-23T12:05:23;34.40;57.80
68139;DHT22;54940;50.842;4.410;2022-07-23T12:07:54;35.00;58.90
68139;DHT22;54940;50.842;4.410;2022-07-23T12:10:26;35.60;57.30
68139;DHT22;54940;50.842;4.410;2022-07-23T12:13:00;35.60;57.70
68139;DHT22;54940;50.842;4.410;2022-07-23T12:15:29;35.90;57.40
68139;DHT22;54940;50.842;4.410;2022-07-23T12:17:57;36.00;56.50
68139;DHT22;54940;50.842;4.410;2022-07-23T12:20:32;36.00;56.70
68139;DHT22;54940;50.842;4.410;2022-07-23T12:23:00;36.60;54.00
68139;DHT22;54940;50.842;4.410;2022-07-23T12:25:29;36.60;52.70
68139;DHT22;54940;50.842;4.410;2022-07-23T12:28:13;36.20;52.50
68139;DHT22;54940;50.842;4.410;2022-07-23T12:30:41;35.70;52.00
68139;DHT22;54940;50.842;4.410;2022-07-23T12:33:09;35.10;53.60
68139;DHT22;54940;50.842;4.410;2022-07-23T12:35:41;34.40;54.90
68139;DHT22;54940;50.842;4.410;2022-07-23T12:38:12;33.70;56.50
68139;DHT22;54940;50.842;4.410;2022-07-23T12:40:46;33.70;58.00
68139;DHT22;54940;50.842;4.410;2022-07-23T12:51:15;33.60;58.60
68139;DHT22;54940;50.842;4.410;2022-07-23T12:53:43;33.30;58.20
68139;DHT22;54940;50.842;4.410;2022-07-23T12:56:15;33.30;58.80
68139;DHT22;54940;50.842;4.410;2022-07-23T13:09:06;32.00;56.20
68139;DHT22;54940;50.842;4.410;2022-07-23T13:11:32;31.90;61.20
68139;DHT22;54940;50.842;4.410;2022-07-23T13:13:59;31.80;60.30
68139;DHT22;54940;50.842;4.410;2022-07-23T13:16:26;31.90;57.80
68139;DHT22;54940;50.842;4.410;2022-07-23T13:18:52;32.30;61.90
68139;DHT22;54940;50.842;4.410;2022-07-23T13:21:18;32.60;58.30
68139;DHT22;54940;50.842;4.410;2022-07-23T13:23:44;32.90;59.60
68139;DHT22;54940;50.842;4.410;2022-07-23T13:26:09;33.60;58.40
68139;DHT22;54940;50.842;4.410;2022-07-23T13:28:35;34.30;58.20
68139;DHT22;54940;50.842;4.410;2022-07-23T13:31:01;35.00;56.10
68139;DHT22;54940;50.842;4.410;2022-07-23T13:33:27;35.40;54.00
68139;DHT22;54940;50.842;4.410;2022-07-23T13:35:53;35.70;52.20
68139;DHT22;54940;50.842;4.410;2022-07-23T13:38:19;34.80;51.30
68139;DHT22;54940;50.842;4.410;2022-07-23T13:40:47;34.40;53.20
68139;DHT22;54940;50.842;4.410;2022-07-23T13:43:16;34.40;55.10
68139;DHT22;54940;50.842;4.410;2022-07-23T13:45:42;34.50;53.00
68139;DHT22;54940;50.842;4.410;2022-07-23T13:48:09;33.70;53.70
68139;DHT22;54940;50.842;4.410;2022-07-23T13:50:36;33.60;56.10
68139;DHT22;54940;50.842;4.410;2022-07-23T13:53:10;33.50;54.90
68139;DHT22;54940;50.842;4.410;2022-07-23T13:55:37;33.10;57.60
68139;DHT22;54940;50.842;4.410;2022-07-23T13:58:04;32.80;56.20
68139;DHT22;54940;50.842;4.410;2022-07-23T14:00:33;32.70;56.90
68139;DHT22;54940;50.842;4.410;2022-07-23T14:02:59;32.40;57.60
68139;DHT22;54940;50.842;4.410;2022-07-23T14:05:25;32.00;54.70
68139;DHT22;54940;50.842;4.410;2022-07-23T14:07:51;31.40;56.40
68139;DHT22;54940;50.842;4.410;2022-07-23T14:10:19;30.90;59.40
68139;DHT22;54940;50.842;4.410;2022-07-23T14:12:46;30.50;61.20
68139;DHT22;54940;50.842;4.410;2022-07-23T14:15:13;30.10;60.90
68139;DHT22;54940;50.842;4.410;2022-07-23T14:17:41;29.90;63.00
68139;DHT22;54940;50.842;4.410;2022-07-23T14:20:08;29.90;62.40
68139;DHT22;54940;50.842;4.410;2022-07-23T14:22:34;29.90;63.30
68139;DHT22;54940;50.842;4.410;2022-07-23T14:25:00;30.30;62.80
68139;DHT22;54940;50.842;4.410;2022-07-23T14:27:27;30.50;62.10
68139;DHT22;54940;50.842;4.410;2022-07-23T14:29:54;30.50;62.30
68139;DHT22;54940;50.842;4.410;2022-07-23T14:32:20;30.30;63.20
68139;DHT22;54940;50.842;4.410;2022-07-23T14:34:46;30.20;62.40
68139;DHT22;54940;50.842;4.410;2022-07-23T14:37:12;29.90;60.10
68139;DHT22;54940;50.842;4.410;2022-07-23T14:39:39;29.80;64.30
68139;DHT22;54940;50.842;4.410;2022-07-23T14:42:05;29.80;62.80
68139;DHT22;54940;50.842;4.410;2022-07-23T14:44:31;30.00;63.30
68139;DHT22;54940;50.842;4.410;2022-07-23T14:46:57;30.10;62.20
68139;DHT22;54940;50.842;4.410;2022-07-23T14:49:23;29.90;62.20
68139;DHT22;54940;50.842;4.410;2022-07-23T14:51:49;29.80;62.70
68139;DHT22;54940;50.842;4.410;2022-07-23T14:54:14;29.80;64.60
68139;DHT22;54940;50.842;4.410;2022-07-23T14:56:41;29.70;64.90
68139;DHT22;54940;50.842;4.410;2022-07-23T14:59:07;29.80;65.10
68139;DHT22;54940;50.842;4.410;2022-07-23T15:01:33;29.90;62.70
68139;DHT22;54940;50.842;4.410;2022-07-23T15:03:59;30.10;61.70
68139;DHT22;54940;50.842;4.410;2022-07-23T15:06:25;29.80;59.30
68139;DHT22;54940;50.842;4.410;2022-07-23T15:08:51;29.70;60.70
68139;DHT22;54940;50.842;4.410;2022-07-23T15:11:16;29.50;63.20
68139;DHT22;54940;50.842;4.410;2022-07-23T15:13:43;29.70;64.10
68139;DHT22;54940;50.842;4.410;2022-07-23T15:16:09;29.60;63.30
68139;DHT22;54940;50.842;4.410;2022-07-23T15:18:35;29.50;65.10
68139;DHT22;54940;50.842;4.410;2022-07-23T15:21:01;29.30;65.20
68139;DHT22;54940;50.842;4.410;2022-07-23T15:23:27;29.20;65.60
68139;DHT22;54940;50.842;4.410;2022-07-23T15:25:54;29.20;64.90
68139;DHT22;54940;50.842;4.410;2022-07-23T15:28:21;29.20;66.00
68139;DHT22;54940;50.842;4.410;2022-07-23T15:30:46;29.00;64.30
68139;DHT22;54940;50.842;4.410;2022-07-23T15:33:12;28.70;64.40
68139;DHT22;54940;50.842;4.410;2022-07-23T15:35:38;28.60;65.40
68139;DHT22;54940;50.842;4.410;2022-07-23T15:38:03;28.60;64.60
68139;DHT22;54940;50.842;4.410;2022-07-23T15:40:29;28.70;65.10
68139;DHT22;54940;50.842;4.410;2022-07-23T15:42:55;28.80;63.90
68139;DHT22;54940;50.842;4.410;2022-07-23T15:45:20;28.70;63.90
68139;DHT22;54940;50.842;4.410;2022-07-23T15:47:47;28.90;64.90
68139;DHT22;54940;50.842;4.410;2022-07-23T15:50:14;28.90;64.80
68139;DHT22;54940;50.842;4.410;2022-07-23T15:52:40;28.70;62.30
68139;DHT22;54940;50.842;4.410;2022-07-23T15:55:06;28.70;65.40
68139;DHT22;54940;50.842;4.410;2022-07-23T15:57:32;28.60;64.80
68139;DHT22;54940;50.842;4.410;2022-07-23T15:59:58;28.80;65.50
68139;DHT22;54940;50.842;4.410;2022-07-23T16:02:24;28.70;67.20
68139;DHT22;54940;50.842;4.410;2022-07-23T16:04:50;28.60;66.10
68139;DHT22;54940;50.842;4.410;2022-07-23T16:07:17;28.70;64.90
68139;DHT22;54940;50.842;4.410;2022-07-23T16:09:43;28.60;66.00
68139;DHT22;54940;50.842;4.410;2022-07-23T16:12:09;28.60;65.20
68139;DHT22;54940;50.842;4.410;2022-07-23T16:14:35;28.70;67.00
68139;DHT22;54940;50.842;4.410;2022-07-23T16:17:01;28.70;68.00
68139;DHT22;54940;50.842;4.410;2022-07-23T16:19:26;28.70;65.60
68139;DHT22;54940;50.842;4.410;2022-07-23T16:21:52;28.50;65.70
68139;DHT22;54940;50.842;4.410;2022-07-23T16:24:18;28.60;66.80
68139;DHT22;54940;50.842;4.410;2022-07-23T16:26:44;28.50;66.80
68139;DHT22;54940;50.842;4.410;2022-07-23T16:29:09;28.30;67.00
68139;DHT22;54940;50.842;4.410;2022-07-23T16:31:35;28.30;66.20
68139;DHT22;54940;50.842;4.410;2022-07-23T16:34:01;28.40;68.50
68139;DHT22;54940;50.842;4.410;2022-07-23T16:36:28;28.30;68.30
68139;DHT22;54940;50.842;4.410;2022-07-23T16:38:54;28.20;65.50